sensor_id;sensor_type;location;lat;lon;timestamp;P1;durP1;ratioP1;P2;durP2;ratioP2
1682;SDS011;13252;53.596;10.060;2023-04-08T00:01:48;21.67;;;14.40;;
1682;SDS011;13252;53.596;10.060;2023-04-08T00:04:17;21.43;;;14.67;;
1682;SDS011;13252;53.596;10.060;2023-04-08T00:06:46;28.73;;;16.60;;
1682;SDS011;13252;53.596;10.060;2023-04-08T00:09:14;21.20;;;13.50;;
1682;SDS011;13252;53.596;10.060;2023-04-08T00:11:42;28.23;;;14.67;;
1682;SDS011;13252;53.596;10.060;2023-04-08T00:14:10;22.53;;;13.83;;
1682;SDS011;13252;53.596;10.060;2023-04-08T00:16:39;26.33;;;14.93;;
1682;SDS011;13252;53.596;10.060;2023-04-08T00:19:07;20.23;;;13.20;;
1682;SDS011;13252;53.596;10.060;2023-04-08T00:21:36;24.53;;;14.50;;
1682;SDS011;13252;53.596;10.060;2023-04-08T00:24:04;18.63;;;12.77;;
1682;SDS011;13252;53.596;10.060;2023-04-08T00:26:32;19.63;;;13.83;;
1682;SDS011;13252;53.596;10.060;2023-04-08T00:29:00;19.13;;;14.07;;
1682;SDS011;13252;53.596;10.060;2023-04-08T00:31:27;21.07;;;14.13;;
1682;SDS011;13252;53.596;10.060;2023-04-08T00:33:58;19.60;;;12.27;;
1682;SDS011;13252;53.596;10.060;2023-04-08T00:36:26;19.10;;;13.43;;
1682;SDS011;13252;53.596;10.060;2023-04-08T00:38:55;18.60;;;12.97;;
1682;SDS011;13252;53.596;10.060;2023-04-08T00:41:23;16.50;;;11.40;;
1682;SDS011;13252;53.596;10.060;2023-04-08T00:43:51;18.63;;;12.97;;
1682;SDS011;13252;53.596;10.060;2023-04-08T00:46:19;19.63;;;13.43;;
1682;SDS011;13252;53.596;10.060;2023-04-08T00:48:48;19.33;;;13.57;;
1682;SDS011;13252;53.596;10.060;2023-04-08T00:51:18;20.07;;;14.23;;
1682;SDS011;13252;53.596;10.060;2023-04-08T00:53:46;16.20;;;11.30;;
1682;SDS011;13252;53.596;10.060;2023-04-08T00:56:14;18.80;;;11.60;;
1682;SDS011;13252;53.596;10.060;2023-04-08T00:58:43;20.97;;;12.77;;
1682;SDS011;13252;53.596;10.060;2023-04-08T01:01:14;16.83;;;12.80;;
1682;SDS011;13252;53.596;10.060;2023-04-08T01:03:49;15.53;;;11.80;;
1682;SDS011;13252;53.596;10.060;2023-04-08T01:06:24;21.53;;;13.20;;
1682;SDS011;13252;53.596;10.060;2023-04-08T01:08:59;20.27;;;12.57;;
1682;SDS011;13252;53.596;10.060;2023-04-08T01:11:27;20.03;;;13.50;;
1682;SDS011;13252;53.596;10.060;2023-04-08T01:13:57;21.07;;;13.13;;
1682;SDS011;13252;53.596;10.060;2023-04-08T01:16:26;16.27;;;11.63;;
1682;SDS011;13252;53.596;10.060;2023-04-08T01:18:55;17.00;;;11.80;;
1682;SDS011;13252;53.596;10.060;2023-04-08T01:21:25;18.50;;;13.20;;
1682;SDS011;13252;53.596;10.060;2023-04-08T01:23:58;20.33;;;12.60;;
1682;SDS011;13252;53.596;10.060;2023-04-08T01:26:30;16.23;;;12.37;;
1682;SDS011;13252;53.596;10.060;2023-04-08T01:28:58;18.73;;;12.50;;
1682;SDS011;13252;53.596;10.060;2023-04-08T01:31:27;15.17;;;10.73;;
1682;SDS011;13252;53.596;10.060;2023-04-08T01:33:56;23.47;;;12.50;;
1682;SDS011;13252;53.596;10.060;2023-04-08T01:36:26;20.67;;;13.20;;
1682;SDS011;13252;53.596;10.060;2023-04-08T01:38:56;15.93;;;12.33;;
1682;SDS011;13252;53.596;10.060;2023-04-08T01:41:24;24.00;;;13.47;;
1682;SDS011;13252;53.596;10.060;2023-04-08T01:43:54;18.30;;;13.30;;
1682;SDS011;13252;53.596;10.060;2023-04-08T01:46:23;16.00;;;12.13;;
1682;SDS011;13252;53.596;10.060;2023-04-08T01:48:51;18.70;;;12.43;;
1682;SDS011;13252;53.596;10.060;2023-04-08T01:51:19;15.70;;;11.23;;
1682;SDS011;13252;53.596;10.060;2023-04-08T01:53:48;16.40;;;11.97;;
1682;SDS011;13252;53.596;10.060;2023-04-08T01:56:16;16.00;;;12.90;;
1682;SDS011;13252;53.596;10.060;2023-04-08T01:58:50;20.07;;;11.50;;
1682;SDS011;13252;53.596;10.060;2023-04-08T02:01:21;18.60;;;11.23;;
1682;SDS011;13252;53.596;10.060;2023-04-08T02:03:49;18.57;;;12.17;;
1682;SDS011;13252;53.596;10.060;2023-04-08T02:06:19;19.83;;;13.07;;
1682;SDS011;13252;53.596;10.060;2023-04-08T02:08:47;16.77;;;12.67;;
1682;SDS011;13252;53.596;10.060;2023-04-08T02:11:15;17.07;;;12.03;;
1682;SDS011;13252;53.596;10.060;2023-04-08T02:13:43;16.77;;;11.30;;
1682;SDS011;13252;53.596;10.060;2023-04-08T02:16:13;16.03;;;11.27;;
1682;SDS011;13252;53.596;10.060;2023-04-08T02:18:44;17.43;;;11.70;;
1682;SDS011;13252;53.596;10.060;2023-04-08T02:21:18;17.67;;;12.50;;
1682;SDS011;13252;53.596;10.060;2023-04-08T02:23:48;16.87;;;11.10;;
1682;SDS011;13252;53.596;10.060;2023-04-08T02:26:19;18.00;;;10.90;;
1682;SDS011;13252;53.596;10.060;2023-04-08T02:28:48;15.87;;;11.40;;
1682;SDS011;13252;53.596;10.060;2023-04-08T02:31:20;14.90;;;10.80;;
1682;SDS011;13252;53.596;10.060;2023-04-08T02:33:50;14.60;;;9.70;;
1682;SDS011;13252;53.596;10.060;2023-04-08T02:36:20;14.17;;;10.50;;
1682;SDS011;13252;53.596;10.060;2023-04-08T02:38:49;14.40;;;9.60;;
1682;SDS011;13252;53.596;10.060;2023-04-08T02:41:17;14.17;;;11.13;;
1682;SDS011;13252;53.596;10.060;2023-04-08T02:43:45;16.77;;;12.43;;
1682;SDS011;13252;53.596;10.060;2023-04-08T02:46:13;16.50;;;10.63;;
1682;SDS011;13252;53.596;10.060;2023-04-08T02:48:41;14.27;;;11.80;;
1682;SDS011;13252;53.596;10.060;2023-04-08T02:51:10;15.03;;;11.83;;
1682;SDS011;13252;53.596;10.060;2023-04-08T02:53:38;20.43;;;12.10;;
1682;SDS011;13252;53.596;10.060;2023-04-08T02:56:08;14.70;;;11.23;;
1682;SDS011;13252;53.596;10.060;2023-04-08T02:58:36;20.07;;;13.40;;
1682;SDS011;13252;53.596;10.060;2023-04-08T03:01:04;17.70;;;12.60;;
1682;SDS011;13252;53.596;10.060;2023-04-08T03:03:32;20.63;;;12.57;;
1682;SDS011;13252;53.596;10.060;2023-04-08T03:06:00;18.47;;;13.00;;
1682;SDS011;13252;53.596;10.060;2023-04-08T03:08:29;21.23;;;14.07;;
1682;SDS011;13252;53.596;10.060;2023-04-08T03:10:58;18.60;;;13.53;;
1682;SDS011;13252;53.596;10.060;2023-04-08T03:13:26;20.30;;;14.50;;
1682;SDS011;13252;53.596;10.060;2023-04-08T03:15:55;20.00;;;14.80;;
1682;SDS011;13252;53.596;10.060;2023-04-08T03:18:23;20.83;;;14.93;;
1682;SDS011;13252;53.596;10.060;2023-04-08T03:20:50;22.53;;;14.20;;
1682;SDS011;13252;53.596;10.060;2023-04-08T03:23:18;22.43;;;15.23;;
1682;SDS011;13252;53.596;10.060;2023-04-08T03:25:47;23.57;;;14.97;;
1682;SDS011;13252;53.596;10.060;2023-04-08T03:28:15;25.97;;;16.77;;
1682;SDS011;13252;53.596;10.060;2023-04-08T03:30:42;22.13;;;15.67;;
1682;SDS011;13252;53.596;10.060;2023-04-08T03:33:10;26.00;;;16.13;;
1682;SDS011;13252;53.596;10.060;2023-04-08T03:35:38;24.37;;;16.83;;
1682;SDS011;13252;53.596;10.060;2023-04-08T03:38:06;30.73;;;15.80;;
1682;SDS011;13252;53.596;10.060;2023-04-08T03:40:34;33.27;;;21.10;;
1682;SDS011;13252;53.596;10.060;2023-04-08T03:43:04;33.90;;;18.90;;
1682;SDS011;13252;53.596;10.060;2023-04-08T03:45:32;36.33;;;18.33;;
1682;SDS011;13252;53.596;10.060;2023-04-08T03:47:59;33.80;;;20.53;;
1682;SDS011;13252;53.596;10.060;2023-04-08T03:50:28;33.00;;;19.50;;
1682;SDS011;13252;53.596;10.060;2023-04-08T03:52:56;43.93;;;21.07;;
1682;SDS011;13252;53.596;10.060;2023-04-08T03:55:24;31.50;;;21.30;;
1682;SDS011;13252;53.596;10.060;2023-04-08T03:57:51;30.67;;;21.27;;
1682;SDS011;13252;53.596;10.060;2023-04-08T04:00:20;32.77;;;20.00;;
1682;SDS011;13252;53.596;10.060;2023-04-08T04:02:48;40.63;;;22.43;;
1682;SDS011;13252;53.596;10.060;2023-04-08T04:05:16;32.10;;;19.87;;
1682;SDS011;13252;53.596;10.060;2023-04-08T04:07:44;29.83;;;17.43;;
1682;SDS011;13252;53.596;10.060;2023-04-08T04:10:11;49.03;;;21.13;;
1682;SDS011;13252;53.596;10.060;2023-04-08T04:12:39;34.20;;;21.30;;
1682;SDS011;13252;53.596;10.060;2023-04-08T04:15:07;40.30;;;20.13;;
1682;SDS011;13252;53.596;10.060;2023-04-08T04:17:37;39.80;;;19.17;;
1682;SDS011;13252;53.596;10.060;2023-04-08T04:20:05;32.17;;;19.27;;
1682;SDS011;13252;53.596;10.060;2023-04-08T04:22:34;27.77;;;19.40;;
1682;SDS011;13252;53.596;10.060;2023-04-08T04:25:02;24.30;;;13.60;;
1682;SDS011;13252;53.596;10.060;2023-04-08T04:27:29;33.00;;;19.57;;
1682;SDS011;13252;53.596;10.060;2023-04-08T04:29:59;31.47;;;20.03;;
1682;SDS011;13252;53.596;10.060;2023-04-08T04:32:27;32.63;;;17.83;;
1682;SDS011;13252;53.596;10.060;2023-04-08T04:34:56;33.57;;;19.80;;
1682;SDS011;13252;53.596;10.060;2023-04-08T04:37:24;33.50;;;19.13;;
1682;SDS011;13252;53.596;10.060;2023-04-08T04:39:52;32.67;;;19.93;;
1682;SDS011;13252;53.596;10.060;2023-04-08T04:42:21;33.70;;;19.30;;
1682;SDS011;13252;53.596;10.060;2023-04-08T04:44:49;32.20;;;17.43;;
1682;SDS011;13252;53.596;10.060;2023-04-08T04:47:17;31.13;;;18.77;;
1682;SDS011;13252;53.596;10.060;2023-04-08T04:49:45;28.10;;;17.27;;
1682;SDS011;13252;53.596;10.060;2023-04-08T04:52:15;37.60;;;20.30;;
1682;SDS011;13252;53.596;10.060;2023-04-08T04:54:44;30.77;;;18.37;;
1682;SDS011;13252;53.596;10.060;2023-04-08T04:57:12;28.53;;;18.23;;
1682;SDS011;13252;53.596;10.060;2023-04-08T04:59:40;30.73;;;19.07;;
1682;SDS011;13252;53.596;10.060;2023-04-08T05:02:08;29.70;;;18.83;;
1682;SDS011;13252;53.596;10.060;2023-04-08T05:04:36;30.20;;;19.37;;
1682;SDS011;13252;53.596;10.060;2023-04-08T05:07:04;38.10;;;21.80;;
1682;SDS011;13252;53.596;10.060;2023-04-08T05:09:34;33.80;;;20.40;;
1682;SDS011;13252;53.596;10.060;2023-04-08T05:12:01;32.60;;;20.23;;
1682;SDS011;13252;53.596;10.060;2023-04-08T05:14:29;33.80;;;21.90;;
1682;SDS011;13252;53.596;10.060;2023-04-08T05:16:59;29.63;;;19.03;;
1682;SDS011;13252;53.596;10.060;2023-04-08T05:19:26;30.10;;;16.23;;
1682;SDS011;13252;53.596;10.060;2023-04-08T05:21:54;33.27;;;17.07;;
1682;SDS011;13252;53.596;10.060;2023-04-08T05:24:22;29.90;;;19.30;;
1682;SDS011;13252;53.596;10.060;2023-04-08T05:26:54;40.50;;;18.80;;
1682;SDS011;13252;53.596;10.060;2023-04-08T05:29:23;30.93;;;19.10;;
1682;SDS011;13252;53.596;10.060;2023-04-08T05:31:50;27.63;;;18.73;;
1682;SDS011;13252;53.596;10.060;2023-04-08T05:34:18;30.27;;;20.27;;
1682;SDS011;13252;53.596;10.060;2023-04-08T05:36:49;32.53;;;18.93;;
1682;SDS011;13252;53.596;10.060;2023-04-08T05:39:18;32.53;;;20.67;;
1682;SDS011;13252;53.596;10.060;2023-04-08T05:41:46;33.57;;;19.73;;
1682;SDS011;13252;53.596;10.060;2023-04-08T05:44:15;43.70;;;21.77;;
1682;SDS011;13252;53.596;10.060;2023-04-08T05:46:44;32.50;;;18.97;;
1682;SDS011;13252;53.596;10.060;2023-04-08T05:49:12;32.60;;;20.37;;
1682;SDS011;13252;53.596;10.060;2023-04-08T05:51:41;28.13;;;18.27;;
1682;SDS011;13252;53.596;10.060;2023-04-08T05:54:09;36.10;;;20.47;;
1682;SDS011;13252;53.596;10.060;2023-04-08T05:56:37;36.63;;;19.60;;
1682;SDS011;13252;53.596;10.060;2023-04-08T05:59:05;33.67;;;19.80;;
1682;SDS011;13252;53.596;10.060;2023-04-08T06:01:34;30.67;;;18.23;;
1682;SDS011;13252;53.596;10.060;2023-04-08T06:04:03;38.40;;;18.63;;
1682;SDS011;13252;53.596;10.060;2023-04-08T06:06:33;31.67;;;19.07;;
1682;SDS011;13252;53.596;10.060;2023-04-08T06:09:00;32.47;;;20.23;;
1682;SDS011;13252;53.596;10.060;2023-04-08T06:11:29;37.20;;;20.23;;
1682;SDS011;13252;53.596;10.060;2023-04-08T06:13:57;40.07;;;20.37;;
1682;SDS011;13252;53.596;10.060;2023-04-08T06:16:24;30.93;;;18.40;;
1682;SDS011;13252;53.596;10.060;2023-04-08T06:18:53;38.40;;;18.30;;
1682;SDS011;13252;53.596;10.060;2023-04-08T06:21:21;27.27;;;18.90;;
1682;SDS011;13252;53.596;10.060;2023-04-08T06:23:49;32.40;;;19.40;;
1682;SDS011;13252;53.596;10.060;2023-04-08T06:26:17;32.23;;;19.37;;
1682;SDS011;13252;53.596;10.060;2023-04-08T06:28:47;32.90;;;19.00;;
1682;SDS011;13252;53.596;10.060;2023-04-08T06:31:16;28.40;;;17.70;;
1682;SDS011;13252;53.596;10.060;2023-04-08T06:33:44;39.50;;;18.17;;
1682;SDS011;13252;53.596;10.060;2023-04-08T06:36:13;29.83;;;17.50;;
1682;SDS011;13252;53.596;10.060;2023-04-08T06:38:41;35.37;;;18.50;;
1682;SDS011;13252;53.596;10.060;2023-04-08T06:41:09;32.10;;;20.90;;
1682;SDS011;13252;53.596;10.060;2023-04-08T06:43:37;29.03;;;17.30;;
1682;SDS011;13252;53.596;10.060;2023-04-08T06:46:05;40.43;;;21.13;;
1682;SDS011;13252;53.596;10.060;2023-04-08T06:48:33;32.43;;;19.53;;
1682;SDS011;13252;53.596;10.060;2023-04-08T06:51:02;40.70;;;19.70;;
1682;SDS011;13252;53.596;10.060;2023-04-08T06:53:32;31.07;;;19.03;;
1682;SDS011;13252;53.596;10.060;2023-04-08T06:56:00;37.73;;;20.70;;
1682;SDS011;13252;53.596;10.060;2023-04-08T06:58:28;34.07;;;16.77;;
1682;SDS011;13252;53.596;10.060;2023-04-08T07:00:56;30.07;;;17.43;;
1682;SDS011;13252;53.596;10.060;2023-04-08T07:03:26;29.43;;;17.40;;
1682;SDS011;13252;53.596;10.060;2023-04-08T07:05:54;24.50;;;16.40;;
1682;SDS011;13252;53.596;10.060;2023-04-08T07:08:22;24.23;;;16.53;;
1682;SDS011;13252;53.596;10.060;2023-04-08T07:10:52;30.53;;;18.97;;
1682;SDS011;13252;53.596;10.060;2023-04-08T07:13:19;31.47;;;18.00;;
1682;SDS011;13252;53.596;10.060;2023-04-08T07:15:47;27.27;;;18.20;;
1682;SDS011;13252;53.596;10.060;2023-04-08T07:18:15;30.77;;;14.77;;
1682;SDS011;13252;53.596;10.060;2023-04-08T07:20:43;28.50;;;18.90;;
1682;SDS011;13252;53.596;10.060;2023-04-08T07:23:11;28.50;;;18.90;;
1682;SDS011;13252;53.596;10.060;2023-04-08T07:25:40;36.40;;;20.20;;
1682;SDS011;13252;53.596;10.060;2023-04-08T07:28:09;27.37;;;19.53;;
1682;SDS011;13252;53.596;10.060;2023-04-08T07:30:37;35.43;;;21.23;;
1682;SDS011;13252;53.596;10.060;2023-04-08T07:33:05;32.93;;;18.77;;
1682;SDS011;13252;53.596;10.060;2023-04-08T07:35:33;29.83;;;18.43;;
1682;SDS011;13252;53.596;10.060;2023-04-08T07:38:01;28.60;;;19.57;;
1682;SDS011;13252;53.596;10.060;2023-04-08T07:40:29;35.23;;;19.20;;
1682;SDS011;13252;53.596;10.060;2023-04-08T07:43:01;28.43;;;18.60;;
1682;SDS011;13252;53.596;10.060;2023-04-08T07:45:30;27.77;;;16.90;;
1682;SDS011;13252;53.596;10.060;2023-04-08T07:47:58;28.77;;;16.83;;
1682;SDS011;13252;53.596;10.060;2023-04-08T07:50:27;28.60;;;17.80;;
1682;SDS011;13252;53.596;10.060;2023-04-08T07:52:56;36.67;;;20.23;;
1682;SDS011;13252;53.596;10.060;2023-04-08T07:55:24;30.90;;;18.10;;
1682;SDS011;13252;53.596;10.060;2023-04-08T07:57:52;38.17;;;18.60;;
1682;SDS011;13252;53.596;10.060;2023-04-08T08:00:20;31.07;;;17.20;;
1682;SDS011;13252;53.596;10.060;2023-04-08T08:02:50;27.70;;;16.70;;
1682;SDS011;13252;53.596;10.060;2023-04-08T08:05:18;28.93;;;16.60;;
1682;SDS011;13252;53.596;10.060;2023-04-08T08:07:46;29.87;;;17.00;;
1682;SDS011;13252;53.596;10.060;2023-04-08T08:10:15;27.20;;;16.30;;
1682;SDS011;13252;53.596;10.060;2023-04-08T08:12:43;28.73;;;17.57;;
1682;SDS011;13252;53.596;10.060;2023-04-08T08:15:11;18.57;;;13.50;;
1682;SDS011;13252;53.596;10.060;2023-04-08T08:17:40;22.93;;;17.03;;
1682;SDS011;13252;53.596;10.060;2023-04-08T08:20:10;26.40;;;16.10;;
1682;SDS011;13252;53.596;10.060;2023-04-08T08:22:38;28.33;;;16.17;;
1682;SDS011;13252;53.596;10.060;2023-04-08T08:25:22;29.73;;;16.33;;
1682;SDS011;13252;53.596;10.060;2023-04-08T08:27:51;32.37;;;17.57;;
1682;SDS011;13252;53.596;10.060;2023-04-08T08:30:21;28.73;;;16.60;;
1682;SDS011;13252;53.596;10.060;2023-04-08T08:32:49;32.63;;;18.20;;
1682;SDS011;13252;53.596;10.060;2023-04-08T08:35:19;30.43;;;19.20;;
1682;SDS011;13252;53.596;10.060;2023-04-08T08:37:47;36.27;;;17.40;;
1682;SDS011;13252;53.596;10.060;2023-04-08T08:40:15;23.50;;;15.73;;
1682;SDS011;13252;53.596;10.060;2023-04-08T08:42:48;24.40;;;17.33;;
1682;SDS011;13252;53.596;10.060;2023-04-08T08:45:18;30.20;;;17.20;;
1682;SDS011;13252;53.596;10.060;2023-04-08T08:47:47;26.30;;;15.93;;
1682;SDS011;13252;53.596;10.060;2023-04-08T08:50:18;30.53;;;18.00;;
1682;SDS011;13252;53.596;10.060;2023-04-08T08:52:47;27.20;;;16.77;;
1682;SDS011;13252;53.596;10.060;2023-04-08T08:55:17;25.77;;;16.03;;
1682;SDS011;13252;53.596;10.060;2023-04-08T08:58:06;24.37;;;14.53;;
1682;SDS011;13252;53.596;10.060;2023-04-08T09:00:36;25.90;;;15.87;;
1682;SDS011;13252;53.596;10.060;2023-04-08T09:03:15;28.83;;;16.43;;
1682;SDS011;13252;53.596;10.060;2023-04-08T09:05:48;31.80;;;16.40;;
1682;SDS011;13252;53.596;10.060;2023-04-08T09:08:26;33.70;;;17.23;;
1682;SDS011;13252;53.596;10.060;2023-04-08T09:13:41;24.53;;;15.27;;
1682;SDS011;13252;53.596;10.060;2023-04-08T09:16:11;24.33;;;15.60;;
1682;SDS011;13252;53.596;10.060;2023-04-08T09:18:40;18.43;;;14.40;;
1682;SDS011;13252;53.596;10.060;2023-04-08T09:21:11;25.07;;;15.27;;
1682;SDS011;13252;53.596;10.060;2023-04-08T09:23:41;21.53;;;13.57;;
1682;SDS011;13252;53.596;10.060;2023-04-08T09:26:11;25.10;;;16.30;;
1682;SDS011;13252;53.596;10.060;2023-04-08T09:28:40;19.47;;;14.37;;
1682;SDS011;13252;53.596;10.060;2023-04-08T09:31:18;23.60;;;16.10;;
1682;SDS011;13252;53.596;10.060;2023-04-08T09:33:47;16.67;;;12.90;;
1682;SDS011;13252;53.596;10.060;2023-04-08T09:36:17;24.27;;;16.10;;
1682;SDS011;13252;53.596;10.060;2023-04-08T09:38:45;22.30;;;14.00;;
1682;SDS011;13252;53.596;10.060;2023-04-08T09:41:13;19.30;;;13.53;;
1682;SDS011;13252;53.596;10.060;2023-04-08T09:43:42;21.40;;;16.07;;
1682;SDS011;13252;53.596;10.060;2023-04-08T09:46:15;20.50;;;15.07;;
1682;SDS011;13252;53.596;10.060;2023-04-08T09:48:47;20.40;;;14.60;;
1682;SDS011;13252;53.596;10.060;2023-04-08T09:51:18;23.57;;;13.83;;
1682;SDS011;13252;53.596;10.060;2023-04-08T09:53:47;21.70;;;15.10;;
1682;SDS011;13252;53.596;10.060;2023-04-08T09:56:18;26.00;;;16.03;;
1682;SDS011;13252;53.596;10.060;2023-04-08T09:58:48;30.50;;;18.60;;
1682;SDS011;13252;53.596;10.060;2023-04-08T10:01:21;23.40;;;16.70;;
1682;SDS011;13252;53.596;10.060;2023-04-08T10:03:53;25.87;;;15.80;;
1682;SDS011;13252;53.596;10.060;2023-04-08T10:06:25;22.93;;;16.97;;
1682;SDS011;13252;53.596;10.060;2023-04-08T10:08:55;23.70;;;14.57;;
1682;SDS011;13252;53.596;10.060;2023-04-08T10:11:23;20.03;;;15.03;;
1682;SDS011;13252;53.596;10.060;2023-04-08T10:13:51;20.10;;;14.97;;
1682;SDS011;13252;53.596;10.060;2023-04-08T10:16:22;21.73;;;14.07;;
1682;SDS011;13252;53.596;10.060;2023-04-08T10:18:52;21.50;;;14.33;;
1682;SDS011;13252;53.596;10.060;2023-04-08T10:21:33;15.73;;;12.87;;
1682;SDS011;13252;53.596;10.060;2023-04-08T10:24:05;15.43;;;12.13;;
1682;SDS011;13252;53.596;10.060;2023-04-08T10:26:34;20.60;;;14.10;;
1682;SDS011;13252;53.596;10.060;2023-04-08T10:32:08;22.87;;;13.10;;
1682;SDS011;13252;53.596;10.060;2023-04-08T10:34:36;18.30;;;14.10;;
1682;SDS011;13252;53.596;10.060;2023-04-08T10:37:19;24.43;;;15.20;;
1682;SDS011;13252;53.596;10.060;2023-04-08T10:39:50;22.70;;;15.20;;
1682;SDS011;13252;53.596;10.060;2023-04-08T10:42:25;21.70;;;16.30;;
1682;SDS011;13252;53.596;10.060;2023-04-08T10:44:53;25.47;;;15.80;;
1682;SDS011;13252;53.596;10.060;2023-04-08T10:47:26;23.43;;;17.03;;
1682;SDS011;13252;53.596;10.060;2023-04-08T10:49:54;30.20;;;19.47;;
1682;SDS011;13252;53.596;10.060;2023-04-08T10:52:24;25.17;;;18.47;;
1682;SDS011;13252;53.596;10.060;2023-04-08T10:54:52;25.47;;;19.17;;
1682;SDS011;13252;53.596;10.060;2023-04-08T10:57:24;30.90;;;20.77;;
1682;SDS011;13252;53.596;10.060;2023-04-08T10:59:52;30.50;;;21.10;;
1682;SDS011;13252;53.596;10.060;2023-04-08T11:02:20;38.77;;;19.90;;
1682;SDS011;13252;53.596;10.060;2023-04-08T11:04:47;39.07;;;21.70;;
1682;SDS011;13252;53.596;10.060;2023-04-08T11:07:15;27.20;;;20.17;;
1682;SDS011;13252;53.596;10.060;2023-04-08T11:09:48;34.23;;;21.97;;
1682;SDS011;13252;53.596;10.060;2023-04-08T11:12:16;37.30;;;24.03;;
1682;SDS011;13252;53.596;10.060;2023-04-08T11:14:44;31.50;;;21.47;;
1682;SDS011;13252;53.596;10.060;2023-04-08T11:17:14;32.20;;;22.97;;
1682;SDS011;13252;53.596;10.060;2023-04-08T11:19:43;32.47;;;21.93;;
1682;SDS011;13252;53.596;10.060;2023-04-08T11:22:11;31.83;;;21.67;;
1682;SDS011;13252;53.596;10.060;2023-04-08T11:24:39;35.63;;;22.57;;
1682;SDS011;13252;53.596;10.060;2023-04-08T11:27:09;31.80;;;22.13;;
1682;SDS011;13252;53.596;10.060;2023-04-08T11:29:36;32.37;;;21.47;;
1682;SDS011;13252;53.596;10.060;2023-04-08T11:32:05;34.77;;;21.60;;
1682;SDS011;13252;53.596;10.060;2023-04-08T11:34:37;35.30;;;20.73;;
1682;SDS011;13252;53.596;10.060;2023-04-08T11:37:05;32.17;;;22.53;;
1682;SDS011;13252;53.596;10.060;2023-04-08T11:39:33;28.53;;;17.10;;
1682;SDS011;13252;53.596;10.060;2023-04-08T11:42:01;38.23;;;20.30;;
1682;SDS011;13252;53.596;10.060;2023-04-08T11:44:31;24.00;;;18.17;;
1682;SDS011;13252;53.596;10.060;2023-04-08T11:46:59;22.90;;;16.50;;
1682;SDS011;13252;53.596;10.060;2023-04-08T11:49:27;21.00;;;16.30;;
1682;SDS011;13252;53.596;10.060;2023-04-08T11:52:10;24.10;;;16.70;;
1682;SDS011;13252;53.596;10.060;2023-04-08T11:54:39;27.27;;;17.83;;
1682;SDS011;13252;53.596;10.060;2023-04-08T11:57:08;25.33;;;17.70;;
1682;SDS011;13252;53.596;10.060;2023-04-08T11:59:38;22.97;;;17.53;;
1682;SDS011;13252;53.596;10.060;2023-04-08T12:02:05;24.30;;;16.87;;
1682;SDS011;13252;53.596;10.060;2023-04-08T12:04:33;25.40;;;19.10;;
1682;SDS011;13252;53.596;10.060;2023-04-08T12:07:01;26.53;;;20.07;;
1682;SDS011;13252;53.596;10.060;2023-04-08T12:09:29;21.60;;;17.10;;
1682;SDS011;13252;53.596;10.060;2023-04-08T12:11:57;29.70;;;19.40;;
1682;SDS011;13252;53.596;10.060;2023-04-08T12:14:24;23.50;;;17.20;;
1682;SDS011;13252;53.596;10.060;2023-04-08T12:16:55;25.97;;;18.70;;
1682;SDS011;13252;53.596;10.060;2023-04-08T12:19:23;28.87;;;19.90;;
1682;SDS011;13252;53.596;10.060;2023-04-08T12:21:52;27.87;;;19.70;;
1682;SDS011;13252;53.596;10.060;2023-04-08T12:24:20;24.13;;;17.60;;
1682;SDS011;13252;53.596;10.060;2023-04-08T12:26:47;29.80;;;18.60;;
1682;SDS011;13252;53.596;10.060;2023-04-08T12:29:15;22.50;;;18.13;;
1682;SDS011;13252;53.596;10.060;2023-04-08T12:31:43;27.50;;;18.70;;
1682;SDS011;13252;53.596;10.060;2023-04-08T12:34:12;23.23;;;17.70;;
1682;SDS011;13252;53.596;10.060;2023-04-08T12:36:40;22.47;;;16.90;;
1682;SDS011;13252;53.596;10.060;2023-04-08T12:39:08;33.70;;;19.70;;
1682;SDS011;13252;53.596;10.060;2023-04-08T12:41:36;27.37;;;18.40;;
1682;SDS011;13252;53.596;10.060;2023-04-08T12:44:04;23.90;;;19.03;;
1682;SDS011;13252;53.596;10.060;2023-04-08T12:46:32;28.10;;;18.80;;
1682;SDS011;13252;53.596;10.060;2023-04-08T12:48:59;28.50;;;18.37;;
1682;SDS011;13252;53.596;10.060;2023-04-08T12:51:32;22.17;;;16.00;;
1682;SDS011;13252;53.596;10.060;2023-04-08T12:53:59;24.43;;;17.80;;
1682;SDS011;13252;53.596;10.060;2023-04-08T12:56:28;26.33;;;17.50;;
1682;SDS011;13252;53.596;10.060;2023-04-08T12:58:56;29.27;;;16.83;;
1682;SDS011;13252;53.596;10.060;2023-04-08T13:01:24;31.10;;;18.00;;
1682;SDS011;13252;53.596;10.060;2023-04-08T13:03:52;23.87;;;16.73;;
1682;SDS011;13252;53.596;10.060;2023-04-08T13:06:20;20.70;;;16.87;;
1682;SDS011;13252;53.596;10.060;2023-04-08T13:08:50;21.70;;;17.63;;
1682;SDS011;13252;53.596;10.060;2023-04-08T13:11:18;26.77;;;17.23;;
1682;SDS011;13252;53.596;10.060;2023-04-08T13:13:46;25.47;;;18.43;;
1682;SDS011;13252;53.596;10.060;2023-04-08T13:16:15;26.80;;;18.97;;
1682;SDS011;13252;53.596;10.060;2023-04-08T13:18:43;26.30;;;18.10;;
1682;SDS011;13252;53.596;10.060;2023-04-08T13:21:11;25.30;;;18.47;;
1682;SDS011;13252;53.596;10.060;2023-04-08T13:23:39;26.93;;;20.40;;
1682;SDS011;13252;53.596;10.060;2023-04-08T13:26:08;29.10;;;20.57;;
1682;SDS011;13252;53.596;10.060;2023-04-08T13:28:36;26.60;;;21.53;;
1682;SDS011;13252;53.596;10.060;2023-04-08T13:31:22;29.90;;;20.10;;
1682;SDS011;13252;53.596;10.060;2023-04-08T13:33:50;27.03;;;17.90;;
1682;SDS011;13252;53.596;10.060;2023-04-08T13:36:23;28.00;;;20.00;;
1682;SDS011;13252;53.596;10.060;2023-04-08T13:38:51;25.80;;;19.70;;
1682;SDS011;13252;53.596;10.060;2023-04-08T13:41:20;27.87;;;20.80;;
1682;SDS011;13252;53.596;10.060;2023-04-08T13:43:48;24.97;;;18.83;;
1682;SDS011;13252;53.596;10.060;2023-04-08T13:46:16;24.90;;;18.60;;
1682;SDS011;13252;53.596;10.060;2023-04-08T13:48:44;30.17;;;19.40;;
1682;SDS011;13252;53.596;10.060;2023-04-08T13:51:12;26.97;;;18.30;;
1682;SDS011;13252;53.596;10.060;2023-04-08T13:53:41;22.90;;;17.53;;
1682;SDS011;13252;53.596;10.060;2023-04-08T13:56:09;26.93;;;18.70;;
1682;SDS011;13252;53.596;10.060;2023-04-08T13:58:38;24.57;;;18.97;;
1682;SDS011;13252;53.596;10.060;2023-04-08T14:01:06;33.10;;;19.97;;
1682;SDS011;13252;53.596;10.060;2023-04-08T14:03:34;28.10;;;19.93;;
1682;SDS011;13252;53.596;10.060;2023-04-08T14:06:02;23.50;;;19.37;;
1682;SDS011;13252;53.596;10.060;2023-04-08T14:08:30;29.70;;;18.73;;
1682;SDS011;13252;53.596;10.060;2023-04-08T14:10:58;25.23;;;18.83;;
1682;SDS011;13252;53.596;10.060;2023-04-08T14:13:26;30.70;;;19.73;;
1682;SDS011;13252;53.596;10.060;2023-04-08T14:15:56;24.20;;;19.70;;
1682;SDS011;13252;53.596;10.060;2023-04-08T14:18:26;30.47;;;19.30;;
1682;SDS011;13252;53.596;10.060;2023-04-08T14:20:54;27.27;;;21.53;;
1682;SDS011;13252;53.596;10.060;2023-04-08T14:23:23;22.70;;;17.67;;
1682;SDS011;13252;53.596;10.060;2023-04-08T14:25:50;25.40;;;17.20;;
1682;SDS011;13252;53.596;10.060;2023-04-08T14:28:18;23.50;;;20.03;;
1682;SDS011;13252;53.596;10.060;2023-04-08T14:30:46;26.70;;;19.70;;
1682;SDS011;13252;53.596;10.060;2023-04-08T14:33:16;27.33;;;19.83;;
1682;SDS011;13252;53.596;10.060;2023-04-08T14:35:44;26.77;;;20.00;;
1682;SDS011;13252;53.596;10.060;2023-04-08T14:38:13;27.43;;;20.23;;